createdAt,value
2023-05-24T00:00:26.701Z,0
2023-05-24T00:01:26.705Z,0
2023-05-24T00:02:26.794Z,0
2023-05-24T00:03:26.795Z,0
2023-05-24T00:04:26.727Z,0
2023-05-24T00:05:26.744Z,0
2023-05-24T00:06:26.714Z,0
2023-05-24T00:07:26.710Z,0
2023-05-24T00:08:26.717Z,0
2023-05-24T00:09:26.711Z,0
2023-05-24T00:10:26.722Z,0
2023-05-24T00:11:26.716Z,0
2023-05-24T00:12:26.713Z,0
2023-05-24T00:13:26.716Z,0
2023-05-24T00:14:26.729Z,0
2023-05-24T00:15:26.718Z,0
2023-05-24T00:16:26.804Z,0
2023-05-24T00:17:26.731Z,0
2023-05-24T00:18:26.723Z,0
2023-05-24T00:19:26.723Z,0
2023-05-24T00:20:26.738Z,0
2023-05-24T00:21:26.761Z,0
2023-05-24T00:22:26.730Z,0
2023-05-24T00:23:26.729Z,0
2023-05-24T00:24:26.726Z,0
2023-05-24T00:25:26.727Z,0
2023-05-24T00:26:26.741Z,0
2023-05-24T00:27:26.728Z,0
2023-05-24T00:28:26.731Z,0
2023-05-24T00:29:26.731Z,0
2023-05-24T00:30:26.733Z,0
2023-05-24T00:31:26.742Z,0
2023-05-24T00:32:26.755Z,0
2023-05-24T00:33:26.738Z,0
2023-05-24T00:34:26.738Z,0
2023-05-24T00:35:26.736Z,0
2023-05-24T00:36:26.743Z,0
2023-05-24T00:37:26.772Z,0
2023-05-24T00:38:26.739Z,0
2023-05-24T00:39:26.744Z,0
2023-05-24T00:40:26.741Z,0
2023-05-24T00:41:26.744Z,0
2023-05-24T00:42:26.755Z,0
2023-05-24T00:43:26.748Z,0
2023-05-24T00:44:26.750Z,0
2023-05-24T00:45:26.747Z,0
2023-05-24T00:46:26.797Z,0
2023-05-24T00:47:26.786Z,0
2023-05-24T00:48:26.755Z,0
2023-05-24T00:49:26.755Z,0
2023-05-24T00:50:26.770Z,0
2023-05-24T00:51:26.754Z,0
2023-05-24T00:52:26.755Z,0
2023-05-24T00:53:26.792Z,0
2023-05-24T00:54:26.751Z,0
2023-05-24T00:55:26.752Z,0
2023-05-24T00:56:26.777Z,0
2023-05-24T00:57:26.756Z,0
2023-05-24T00:58:26.763Z,0
2023-05-24T00:59:26.756Z,0
2023-05-24T01:00:26.759Z,0
2023-05-24T01:01:26.811Z,0
2023-05-24T01:02:26.822Z,0
2023-05-24T01:03:26.793Z,0
2023-05-24T01:04:26.760Z,0
2023-05-24T01:05:26.762Z,0
2023-05-24T01:06:26.765Z,0
2023-05-24T01:07:26.770Z,0
2023-05-24T01:08:26.766Z,0
2023-05-24T01:09:26.792Z,0
2023-05-24T01:10:26.772Z,0
2023-05-24T01:11:26.770Z,0
2023-05-24T01:12:26.771Z,0
2023-05-24T01:13:26.771Z,0
2023-05-24T01:14:26.771Z,0
2023-05-24T01:15:26.767Z,0
2023-05-24T01:16:26.779Z,0
2023-05-24T01:17:26.812Z,0
2023-05-24T01:18:26.780Z,0
2023-05-24T01:19:26.773Z,0
2023-05-24T01:20:26.849Z,0
2023-05-24T01:21:26.771Z,0
2023-05-24T01:22:26.771Z,0
2023-05-24T01:23:26.776Z,0
2023-05-24T01:24:26.772Z,0
2023-05-24T01:25:26.804Z,0
2023-05-24T01:26:26.776Z,0
2023-05-24T01:27:26.778Z,0
2023-05-24T01:28:26.777Z,0
2023-05-24T01:29:26.773Z,0
2023-05-24T01:30:26.773Z,0
2023-05-24T01:31:26.817Z,0
2023-05-24T01:32:26.804Z,0
2023-05-24T01:33:26.780Z,0
2023-05-24T01:34:26.781Z,0
2023-05-24T01:35:26.774Z,0
2023-05-24T01:36:26.777Z,0
2023-05-24T01:37:26.778Z,0
2023-05-24T01:38:26.784Z,0
2023-05-24T01:39:26.781Z,0
2023-05-24T01:40:26.773Z,0
2023-05-24T01:41:26.817Z,0
2023-05-24T01:42:26.781Z,0
2023-05-24T01:43:26.779Z,0
2023-05-24T01:44:26.786Z,0
2023-05-24T01:45:26.776Z,0
2023-05-24T01:46:26.815Z,0
2023-05-24T01:47:26.792Z,0
2023-05-24T01:48:26.778Z,0
2023-05-24T01:49:26.786Z,0
2023-05-24T01:50:26.776Z,0
2023-05-24T01:51:26.785Z,0
2023-05-24T01:52:26.803Z,0
2023-05-24T01:53:26.786Z,0
2023-05-24T01:54:26.782Z,0
2023-05-24T01:55:26.784Z,0
2023-05-24T01:56:26.788Z,0
2023-05-24T01:57:26.808Z,0
2023-05-24T01:58:26.790Z,0
2023-05-24T01:59:26.790Z,0
2023-05-24T02:00:26.799Z,0
2023-05-24T02:01:26.836Z,0
2023-05-24T02:02:26.839Z,0
2023-05-24T02:03:26.844Z,0
2023-05-24T02:04:26.808Z,0
2023-05-24T02:05:26.805Z,0
2023-05-24T02:06:26.804Z,0
2023-05-24T02:07:26.814Z,0
2023-05-24T02:08:26.804Z,0
2023-05-24T02:09:26.803Z,0
2023-05-24T02:10:26.805Z,0
2023-05-24T02:11:26.804Z,0
2023-05-24T02:12:26.802Z,0
2023-05-24T02:13:26.836Z,0
2023-05-24T02:14:26.807Z,0
2023-05-24T02:15:26.804Z,0
2023-05-24T02:16:26.981Z,0
2023-05-24T02:17:26.864Z,0
2023-05-24T02:18:26.811Z,0
2023-05-24T02:19:26.814Z,0
2023-05-24T02:20:26.842Z,0
2023-05-24T02:21:26.815Z,0
2023-05-24T02:22:26.824Z,0
2023-05-24T02:23:26.816Z,0
2023-05-24T02:24:26.819Z,0
2023-05-24T02:25:26.814Z,0
2023-05-24T02:26:26.827Z,0
2023-05-24T02:27:26.823Z,0
2023-05-24T02:28:26.826Z,0
2023-05-24T02:29:26.856Z,0
2023-05-24T02:30:26.824Z,0
2023-05-24T02:31:26.871Z,0
2023-05-24T02:32:26.833Z,0
2023-05-24T02:33:26.837Z,0
2023-05-24T02:34:26.835Z,0
2023-05-24T02:35:26.834Z,0
2023-05-24T02:36:26.836Z,0
2023-05-24T02:37:26.845Z,0
2023-05-24T02:38:26.844Z,0
2023-05-24T02:39:26.843Z,0
2023-05-24T02:40:26.843Z,0
2023-05-24T02:41:26.843Z,0
2023-05-24T02:42:26.847Z,0
2023-05-24T02:43:26.844Z,0
2023-05-24T02:44:26.855Z,0
2023-05-24T02:45:26.872Z,0
2023-05-24T02:46:26.880Z,0
2023-05-24T02:47:27.056Z,0
2023-05-24T02:48:26.847Z,0
2023-05-24T02:49:26.849Z,0
2023-05-24T02:50:26.849Z,0
2023-05-24T02:51:26.853Z,0
2023-05-24T02:52:26.865Z,0
2023-05-24T02:53:26.860Z,0
2023-05-24T02:54:26.851Z,0
2023-05-24T02:55:26.893Z,0
2023-05-24T02:56:26.866Z,0
2023-05-24T02:57:26.850Z,0
2023-05-24T02:58:26.855Z,0
2023-05-24T02:59:26.853Z,0
2023-05-24T03:00:26.854Z,0
2023-05-24T03:01:26.909Z,0
2023-05-24T03:02:26.890Z,0
2023-05-24T03:03:26.918Z,0
2023-05-24T03:04:26.865Z,0
2023-05-24T03:05:26.912Z,0
2023-05-24T03:06:26.862Z,0
2023-05-24T03:07:26.865Z,1
2023-05-24T03:08:26.863Z,1
2023-05-24T03:09:26.867Z,1
2023-05-24T03:10:26.881Z,1
2023-05-24T03:11:26.869Z,1
2023-05-24T03:12:26.870Z,2
2023-05-24T03:13:26.888Z,2
2023-05-24T03:14:26.878Z,2
2023-05-24T03:15:26.895Z,2
2023-05-24T03:16:26.947Z,2
2023-05-24T03:17:26.930Z,4
2023-05-24T03:18:26.880Z,4
2023-05-24T03:19:26.882Z,4
2023-05-24T03:20:26.882Z,4
2023-05-24T03:21:26.912Z,4
2023-05-24T03:22:26.894Z,5
2023-05-24T03:23:26.883Z,5
2023-05-24T03:24:26.887Z,5
2023-05-24T03:25:26.878Z,5
2023-05-24T03:26:26.886Z,5
2023-05-24T03:27:26.886Z,6
2023-05-24T03:28:26.885Z,6
2023-05-24T03:29:26.890Z,6
2023-05-24T03:30:26.892Z,6
2023-05-24T03:31:26.918Z,6
2023-05-24T03:32:26.907Z,7
2023-05-24T03:33:26.921Z,7
2023-05-24T03:34:26.893Z,7
2023-05-24T03:35:26.905Z,7
2023-05-24T03:36:26.896Z,7
2023-05-24T03:37:26.897Z,10
2023-05-24T03:38:26.899Z,10
2023-05-24T03:39:26.901Z,10
2023-05-24T03:40:26.899Z,10
2023-05-24T03:41:26.900Z,10
2023-05-24T03:42:26.914Z,10
2023-05-24T03:43:26.912Z,10
2023-05-24T03:44:26.908Z,10
2023-05-24T03:45:34.968Z,10
2023-05-24T03:46:26.964Z,10
2023-05-24T03:47:26.935Z,13
2023-05-24T03:48:26.914Z,13
2023-05-24T03:49:26.946Z,13
2023-05-24T03:50:26.914Z,13
2023-05-24T03:51:26.911Z,13
2023-05-24T03:52:26.916Z,21
2023-05-24T03:53:26.919Z,21
2023-05-24T03:54:26.912Z,21
2023-05-24T03:55:26.919Z,21
2023-05-24T03:56:26.918Z,21
2023-05-24T03:57:26.915Z,32
2023-05-24T03:58:26.914Z,32
2023-05-24T03:59:26.920Z,32
2023-05-24T04:00:26.920Z,32
2023-05-24T04:01:33.130Z,32
2023-05-24T04:02:26.995Z,49
2023-05-24T04:03:27.010Z,49
2023-05-24T04:04:26.921Z,49
2023-05-24T04:05:27.064Z,49
2023-05-24T04:06:26.928Z,49
2023-05-24T04:07:26.923Z,60
2023-05-24T04:08:26.931Z,60
2023-05-24T04:09:26.924Z,60
2023-05-24T04:10:26.924Z,60
2023-05-24T04:11:26.925Z,60
2023-05-24T04:12:26.926Z,63
2023-05-24T04:13:26.926Z,63
2023-05-24T04:14:26.926Z,63
2023-05-24T04:15:26.924Z,63
2023-05-24T04:16:26.939Z,63
2023-05-24T04:17:27.095Z,73
2023-05-24T04:18:27.030Z,73
2023-05-24T04:19:26.931Z,73
2023-05-24T04:20:26.968Z,73
2023-05-24T04:21:26.961Z,73
2023-05-24T04:22:26.941Z,90
2023-05-24T04:23:26.934Z,90
2023-05-24T04:24:26.950Z,90
2023-05-24T04:25:26.957Z,90
2023-05-24T04:26:26.932Z,90
2023-05-24T04:27:26.940Z,112
2023-05-24T04:28:26.938Z,112
2023-05-24T04:29:26.933Z,112
2023-05-24T04:30:26.938Z,112
2023-05-24T04:31:26.960Z,112
2023-05-24T04:32:26.955Z,120
2023-05-24T04:33:26.937Z,120
2023-05-24T04:34:26.941Z,120
2023-05-24T04:35:26.942Z,120
2023-05-24T04:36:26.945Z,120
2023-05-24T04:37:26.976Z,100
2023-05-24T04:38:26.949Z,100
2023-05-24T04:39:26.948Z,100
2023-05-24T04:40:26.949Z,100
2023-05-24T04:41:26.951Z,100
2023-05-24T04:42:26.945Z,87
2023-05-24T04:43:26.951Z,87
2023-05-24T04:44:26.951Z,87
2023-05-24T04:45:26.950Z,87
2023-05-24T04:46:26.969Z,87
2023-05-24T04:47:26.975Z,98
2023-05-24T04:48:26.952Z,98
2023-05-24T04:49:26.956Z,98
2023-05-24T04:50:26.952Z,98
2023-05-24T04:51:26.965Z,98
2023-05-24T04:52:26.958Z,138
2023-05-24T04:53:26.985Z,138
2023-05-24T04:54:26.959Z,138
2023-05-24T04:55:26.955Z,138
2023-05-24T04:56:26.958Z,138
2023-05-24T04:57:26.959Z,176
2023-05-24T04:58:26.960Z,176
2023-05-24T04:59:26.959Z,176
2023-05-24T05:00:26.958Z,176
2023-05-24T05:01:26.986Z,176
2023-05-24T05:02:27.027Z,197
2023-05-24T05:03:27.029Z,197
2023-05-24T05:04:26.962Z,197
2023-05-24T05:05:26.962Z,197
2023-05-24T05:06:26.966Z,197
2023-05-24T05:07:26.958Z,245
2023-05-24T05:08:26.964Z,245
2023-05-24T05:09:26.993Z,245
2023-05-24T05:10:26.965Z,245
2023-05-24T05:11:26.964Z,245
2023-05-24T05:12:26.975Z,279
2023-05-24T05:13:26.970Z,279
2023-05-24T05:14:26.969Z,279
2023-05-24T05:15:26.974Z,279
2023-05-24T05:16:26.992Z,279
2023-05-24T05:17:26.968Z,267
2023-05-24T05:18:26.967Z,267
2023-05-24T05:19:26.974Z,267
2023-05-24T05:20:26.994Z,267
2023-05-24T05:21:26.981Z,267
2023-05-24T05:22:27.382Z,234
2023-05-24T05:23:26.977Z,234
2023-05-24T05:24:26.973Z,234
2023-05-24T05:25:27.012Z,234
2023-05-24T05:26:26.984Z,234
2023-05-24T05:27:26.986Z,208
2023-05-24T05:28:26.977Z,208
2023-05-24T05:29:26.974Z,208
2023-05-24T05:30:26.978Z,208
2023-05-24T05:31:26.981Z,208
2023-05-24T05:32:27.041Z,235
2023-05-24T05:33:27.020Z,235
2023-05-24T05:34:26.976Z,235
2023-05-24T05:35:26.977Z,235
2023-05-24T05:36:26.981Z,235
2023-05-24T05:37:26.979Z,288
2023-05-24T05:38:26.981Z,288
2023-05-24T05:39:26.998Z,288
2023-05-24T05:40:26.975Z,288
2023-05-24T05:41:27.007Z,288
2023-05-24T05:42:26.985Z,296
2023-05-24T05:43:26.979Z,296
2023-05-24T05:44:26.980Z,296
2023-05-24T05:45:26.987Z,296
2023-05-24T05:46:27.033Z,296
2023-05-24T05:47:27.012Z,345
2023-05-24T05:48:26.985Z,345
2023-05-24T05:49:26.981Z,345
2023-05-24T05:50:26.987Z,345
2023-05-24T05:51:27.015Z,345
2023-05-24T05:52:26.994Z,316
2023-05-24T05:53:27.001Z,316
2023-05-24T05:54:26.986Z,316
2023-05-24T05:55:26.982Z,316
2023-05-24T05:56:26.988Z,316
2023-05-24T05:57:27.015Z,309
2023-05-24T05:58:27.010Z,309
2023-05-24T05:59:26.993Z,309
2023-05-24T06:00:26.990Z,309
2023-05-24T06:01:26.987Z,309
2023-05-24T06:02:27.109Z,344
2023-05-24T06:03:27.097Z,344
2023-05-24T06:04:27.033Z,344
2023-05-24T06:05:26.985Z,344
2023-05-24T06:06:26.986Z,344
2023-05-24T06:07:26.985Z,385
2023-05-24T06:08:26.989Z,385
2023-05-24T06:09:26.981Z,385
2023-05-24T06:10:26.989Z,385
2023-05-24T06:11:26.985Z,385
2023-05-24T06:12:26.991Z,470
2023-05-24T06:13:27.022Z,470
2023-05-24T06:14:26.992Z,470
2023-05-24T06:15:26.997Z,470
2023-05-24T06:16:27.018Z,470
2023-05-24T06:17:27.000Z,530
2023-05-24T06:18:26.987Z,530
2023-05-24T06:19:26.992Z,530
2023-05-24T06:20:27.001Z,530
2023-05-24T06:21:26.987Z,530
2023-05-24T06:22:26.989Z,621
2023-05-24T06:23:26.998Z,621
2023-05-24T06:24:26.992Z,621
2023-05-24T06:25:26.990Z,621
2023-05-24T06:26:26.999Z,621
2023-05-24T06:27:26.989Z,633
2023-05-24T06:28:26.995Z,633
2023-05-24T06:29:27.016Z,633
2023-05-24T06:30:27.020Z,633
2023-05-24T06:31:27.036Z,633
2023-05-24T06:32:27.026Z,694
2023-05-24T06:33:26.989Z,694
2023-05-24T06:34:26.989Z,694
2023-05-24T06:35:26.991Z,694
2023-05-24T06:36:26.996Z,694
2023-05-24T06:37:26.995Z,745
2023-05-24T06:38:26.993Z,745
2023-05-24T06:39:26.995Z,745
2023-05-24T06:40:27.030Z,745
2023-05-24T06:41:27.020Z,745
2023-05-24T06:42:27.003Z,675
2023-05-24T06:43:26.999Z,675
2023-05-24T06:44:27.000Z,675
2023-05-24T06:45:27.114Z,675
2023-05-24T06:46:27.025Z,675
2023-05-24T06:47:27.050Z,698
2023-05-24T06:48:27.062Z,698
2023-05-24T06:49:27.004Z,698
2023-05-24T06:50:27.016Z,698
2023-05-24T06:51:27.026Z,698
2023-05-24T06:52:27.003Z,866
2023-05-24T06:53:27.017Z,866
2023-05-24T06:54:27.011Z,866
2023-05-24T06:55:27.012Z,866
2023-05-24T06:56:27.014Z,955
2023-05-24T06:57:27.021Z,955
2023-05-24T06:58:27.005Z,955
2023-05-24T06:59:27.014Z,955
2023-05-24T07:00:27.029Z,955
2023-05-24T07:01:27.314Z,955
2023-05-24T07:02:27.025Z,1006
2023-05-24T07:03:27.022Z,1006
2023-05-24T07:04:27.065Z,1006
2023-05-24T07:05:27.019Z,1006
2023-05-24T07:06:27.051Z,1006
2023-05-24T07:07:27.027Z,1024
2023-05-24T07:08:27.023Z,1024
2023-05-24T07:09:27.025Z,1024
2023-05-24T07:10:27.053Z,1024
2023-05-24T07:11:27.029Z,1080
2023-05-24T07:12:27.030Z,1080
2023-05-24T07:13:27.028Z,1080
2023-05-24T07:14:27.025Z,1080
2023-05-24T07:15:27.038Z,1080
2023-05-24T07:16:27.041Z,1155
2023-05-24T07:17:27.226Z,1155
2023-05-24T07:18:27.029Z,1155
2023-05-24T07:19:27.030Z,1155
2023-05-24T07:20:27.100Z,1155
2023-05-24T07:21:27.030Z,1211
2023-05-24T07:22:27.034Z,1211
2023-05-24T07:23:27.057Z,1211
2023-05-24T07:24:27.037Z,1211
2023-05-24T07:25:27.034Z,1211
2023-05-24T07:26:27.047Z,1379
2023-05-24T07:27:27.037Z,1379
2023-05-24T07:28:27.042Z,1379
2023-05-24T07:29:27.035Z,1379
2023-05-24T07:30:32.122Z,1379
2023-05-24T07:31:27.038Z,1604
2023-05-24T07:32:27.092Z,1604
2023-05-24T07:33:27.121Z,1604
2023-05-24T07:34:27.044Z,1604
2023-05-24T07:35:27.044Z,1604
2023-05-24T07:36:27.047Z,1758
2023-05-24T07:37:27.041Z,1758
2023-05-24T07:38:27.040Z,1758
2023-05-24T07:39:27.050Z,1758
2023-05-24T07:40:27.048Z,1758
2023-05-24T07:41:27.045Z,1844
2023-05-24T07:42:27.061Z,1844
2023-05-24T07:43:27.079Z,1844
2023-05-24T07:44:27.067Z,1844
2023-05-24T07:45:27.051Z,1844
2023-05-24T07:46:27.124Z,1978
2023-05-24T07:47:27.080Z,1978
2023-05-24T07:48:27.067Z,1978
2023-05-24T07:49:27.214Z,1901
2023-05-24T07:50:27.059Z,1901
2023-05-24T07:51:27.061Z,1901
2023-05-24T07:52:27.066Z,1901
2023-05-24T07:53:27.065Z,1901
2023-05-24T07:54:27.076Z,1837
2023-05-24T07:55:27.073Z,1837
2023-05-24T07:56:27.073Z,1837
2023-05-24T07:57:27.077Z,1837
2023-05-24T07:58:27.068Z,1837
2023-05-24T07:59:27.077Z,2307
2023-05-24T08:00:27.091Z,2307
2023-05-24T08:01:27.076Z,2307
2023-05-24T08:02:27.126Z,2307
2023-05-24T08:03:27.151Z,2307
2023-05-24T08:04:27.079Z,2190
2023-05-24T08:05:27.117Z,2190
2023-05-24T08:06:27.099Z,2190
2023-05-24T08:07:27.090Z,2190
2023-05-24T08:08:27.081Z,2190
2023-05-24T08:09:27.080Z,2030
2023-05-24T08:10:27.089Z,2004
2023-05-24T08:11:27.086Z,1964
2023-05-24T08:12:27.086Z,1964
2023-05-24T08:13:27.086Z,1964
2023-05-24T08:14:27.084Z,1964
2023-05-24T08:15:27.090Z,1964
2023-05-24T08:16:27.150Z,1819
2023-05-24T08:17:27.100Z,1819
2023-05-24T08:18:27.094Z,1819
2023-05-24T08:19:27.097Z,1819
2023-05-24T08:20:27.139Z,1819
2023-05-24T08:21:27.243Z,1751
2023-05-24T08:22:27.098Z,1751
2023-05-24T08:23:27.113Z,1751
2023-05-24T08:24:27.104Z,1751
2023-05-24T08:25:27.105Z,1751
2023-05-24T08:26:27.115Z,1961
2023-05-24T08:27:27.107Z,1961
2023-05-24T08:28:27.144Z,1961
2023-05-24T08:29:27.112Z,1961
2023-05-24T08:30:27.108Z,1961
2023-05-24T08:31:27.141Z,2186
2023-05-24T08:32:27.332Z,2186
2023-05-24T08:33:27.115Z,2186
2023-05-24T08:34:27.112Z,2201
2023-05-24T08:35:27.116Z,2201
2023-05-24T08:36:27.118Z,2201
2023-05-24T08:37:27.269Z,2201
2023-05-24T08:38:27.121Z,2201
2023-05-24T08:39:27.131Z,2274
2023-05-24T08:40:27.120Z,2274
2023-05-24T08:41:27.125Z,2274
2023-05-24T08:42:27.120Z,2274
2023-05-24T08:43:27.124Z,2274
2023-05-24T08:44:27.129Z,2550
2023-05-24T08:45:27.126Z,2550
2023-05-24T08:46:27.158Z,2550
2023-05-24T08:47:27.200Z,2550
2023-05-24T08:48:27.194Z,2550
2023-05-24T08:49:27.138Z,2715
2023-05-24T08:50:27.144Z,2710
2023-05-24T08:51:27.139Z,2710
2023-05-24T08:52:27.146Z,2710
2023-05-24T08:53:27.183Z,2710
2023-05-24T08:54:27.142Z,2710
2023-05-24T08:55:27.148Z,2511
2023-05-24T08:56:27.146Z,2511
2023-05-24T08:57:27.156Z,2511
2023-05-24T08:58:27.148Z,2511
2023-05-24T08:59:27.150Z,2645
2023-05-24T09:00:27.150Z,2649
2023-05-24T09:01:29.887Z,3016
2023-05-24T09:02:27.157Z,3814
2023-05-24T09:03:27.313Z,3558
2023-05-24T09:04:27.207Z,3443
2023-05-24T09:05:27.173Z,3443
2023-05-24T09:06:27.159Z,3943
2023-05-24T09:07:27.162Z,4961
2023-05-24T09:08:27.163Z,5199
2023-05-24T09:09:27.368Z,6668
2023-05-24T09:10:28.337Z,5576
2023-05-24T09:11:27.166Z,6202
2023-05-24T09:12:36.014Z,6868
2023-05-24T09:13:27.167Z,7381
2023-05-24T09:14:27.171Z,6555
2023-05-24T09:15:27.175Z,7962
2023-05-24T09:16:27.208Z,7053
2023-05-24T09:17:27.177Z,5379
2023-05-24T09:18:27.195Z,5580
2023-05-24T09:19:27.313Z,6969
2023-05-24T09:20:27.268Z,5544
2023-05-24T09:21:27.178Z,5111
2023-05-24T09:22:27.182Z,7581
2023-05-24T09:23:27.177Z,7303
2023-05-24T09:24:27.170Z,4631
2023-05-24T09:25:27.373Z,4411
2023-05-24T09:26:27.179Z,4347
2023-05-24T09:27:27.178Z,4325
2023-05-24T09:28:27.183Z,4349
2023-05-24T09:29:27.178Z,4391
2023-05-24T09:30:27.189Z,4577
2023-05-24T09:31:27.219Z,4746
2023-05-24T09:32:27.212Z,4627
2023-05-24T09:33:27.181Z,4325
2023-05-24T09:34:27.186Z,4443
2023-05-24T09:35:27.180Z,4320
2023-05-24T09:36:27.182Z,4320
2023-05-24T09:37:30.922Z,4287
2023-05-24T09:38:27.187Z,4423
2023-05-24T09:39:27.190Z,5125
2023-05-24T09:40:27.185Z,5336
2023-05-24T09:41:27.256Z,6371
2023-05-24T09:42:27.213Z,6527
2023-05-24T09:43:27.192Z,5859
2023-05-24T09:44:27.194Z,5051
2023-05-24T09:45:27.193Z,8145
2023-05-24T09:46:27.254Z,7952
2023-05-24T09:47:27.222Z,8132
2023-05-24T09:48:27.202Z,7258
2023-05-24T09:49:27.206Z,5206
2023-05-24T09:50:27.216Z,7288
2023-05-24T09:51:27.320Z,7163
2023-05-24T09:52:27.216Z,7628
2023-05-24T09:53:27.217Z,7143
2023-05-24T09:54:27.205Z,7537
2023-05-24T09:55:27.214Z,5999
2023-05-24T09:56:27.214Z,5740
2023-05-24T09:57:27.246Z,5367
2023-05-24T09:58:27.217Z,4657
2023-05-24T09:59:27.211Z,6017
2023-05-24T10:00:27.215Z,7327
2023-05-24T10:01:27.268Z,7354
2023-05-24T10:02:29.912Z,5778
2023-05-24T10:03:27.326Z,6283
2023-05-24T10:04:27.367Z,5825
2023-05-24T10:05:27.219Z,6142
2023-05-24T10:06:27.225Z,5994
2023-05-24T10:07:27.228Z,6209
2023-05-24T10:08:27.227Z,5644
2023-05-24T10:09:27.229Z,5622
2023-05-24T10:10:27.223Z,5011
2023-05-24T10:11:27.228Z,4233
2023-05-24T10:12:27.226Z,3923
2023-05-24T10:13:27.295Z,3905
2023-05-24T10:14:27.230Z,3632
2023-05-24T10:15:27.223Z,3539
2023-05-24T10:16:27.240Z,4101
2023-05-24T10:17:27.270Z,4705
2023-05-24T10:18:27.234Z,4138
2023-05-24T10:19:27.231Z,3931
2023-05-24T10:20:27.357Z,3686
2023-05-24T10:21:27.256Z,4056
2023-05-24T10:22:27.237Z,3880
2023-05-24T10:23:27.230Z,3767
2023-05-24T10:24:27.237Z,4085
2023-05-24T10:25:27.271Z,4108
2023-05-24T10:26:27.236Z,7325
2023-05-24T10:27:27.240Z,4905
2023-05-24T10:28:27.243Z,3849
2023-05-24T10:29:27.270Z,3508
2023-05-24T10:30:27.242Z,3357
2023-05-24T10:31:27.284Z,3359
2023-05-24T10:32:27.301Z,3256
2023-05-24T10:33:27.249Z,3351
2023-05-24T10:34:27.254Z,3174
2023-05-24T10:35:27.247Z,2939
2023-05-24T10:36:27.247Z,2904
2023-05-24T10:37:27.254Z,2953
2023-05-24T10:38:27.249Z,3024
2023-05-24T10:39:27.252Z,3095
2023-05-24T10:40:27.264Z,3181
2023-05-24T10:41:27.257Z,3172
2023-05-24T10:42:27.255Z,3092
2023-05-24T10:43:27.254Z,2889
2023-05-24T10:44:27.256Z,2769
2023-05-24T10:45:27.321Z,2659
2023-05-24T10:46:27.311Z,2619
2023-05-24T10:47:27.321Z,2555
2023-05-24T10:48:27.267Z,2470
2023-05-24T10:49:27.265Z,2465
2023-05-24T10:50:27.266Z,2439
2023-05-24T10:51:27.265Z,2404
2023-05-24T10:52:27.270Z,2383
2023-05-24T10:53:27.296Z,2378
2023-05-24T10:54:27.373Z,2378
2023-05-24T10:55:27.268Z,2340
2023-05-24T10:56:27.268Z,2287
2023-05-24T10:57:27.271Z,2250
2023-05-24T10:58:27.275Z,2210
2023-05-24T10:59:27.276Z,2210
2023-05-24T11:00:35.034Z,2137
2023-05-24T11:01:27.385Z,2113
2023-05-24T11:02:27.290Z,2075
2023-05-24T11:03:27.279Z,2057
2023-05-24T11:04:27.280Z,2021
2023-05-24T11:05:27.309Z,2021
2023-05-24T11:06:27.278Z,2038
2023-05-24T11:07:27.287Z,2038
2023-05-24T11:08:27.285Z,2038
2023-05-24T11:09:27.283Z,2038
2023-05-24T11:10:27.284Z,2038
2023-05-24T11:11:29.356Z,2153
2023-05-24T11:12:27.285Z,2068
2023-05-24T11:13:27.294Z,2063
2023-05-24T11:14:27.292Z,1888
2023-05-24T11:15:27.293Z,1814
2023-05-24T11:16:27.297Z,1752
2023-05-24T11:17:27.338Z,1752
2023-05-24T11:18:27.293Z,1571
2023-05-24T11:19:27.292Z,1495
2023-05-24T11:20:27.358Z,1475
2023-05-24T11:21:27.297Z,1475
2023-05-24T11:22:27.306Z,1475
2023-05-24T11:23:27.303Z,1475
2023-05-24T11:24:27.303Z,1330
2023-05-24T11:25:27.297Z,1294
2023-05-24T11:26:27.298Z,1303
2023-05-24T11:27:27.298Z,1329
2023-05-24T11:28:27.318Z,1329
2023-05-24T11:29:27.296Z,1331
2023-05-24T11:30:27.302Z,1326
2023-05-24T11:31:27.325Z,1326
2023-05-24T11:32:27.387Z,1250
2023-05-24T11:33:27.324Z,1250
2023-05-24T11:34:27.476Z,1170
2023-05-24T11:35:27.297Z,1113
2023-05-24T11:36:27.300Z,1113
2023-05-24T11:37:35.127Z,1004
2023-05-24T11:38:27.302Z,1004
2023-05-24T11:39:27.301Z,939
2023-05-24T11:40:27.299Z,939
2023-05-24T11:41:27.307Z,939
2023-05-24T11:42:27.299Z,939
2023-05-24T11:43:27.296Z,939
2023-05-24T11:44:27.300Z,951
2023-05-24T11:45:27.299Z,951
2023-05-24T11:46:27.310Z,951
2023-05-24T11:47:27.324Z,951
2023-05-24T11:48:27.302Z,951
2023-05-24T11:49:27.335Z,1148
2023-05-24T11:50:28.741Z,1171
2023-05-24T11:51:27.303Z,1180
2023-05-24T11:52:27.307Z,1204
2023-05-24T11:53:27.303Z,1214
2023-05-24T11:54:27.302Z,1208
2023-05-24T11:55:27.299Z,1208
2023-05-24T11:56:27.304Z,1208
2023-05-24T11:57:27.318Z,1047
2023-05-24T11:58:27.309Z,1040
2023-05-24T11:59:27.309Z,1040
2023-05-24T12:00:27.309Z,1040
2023-05-24T12:01:27.335Z,1040
2023-05-24T12:02:27.391Z,840
2023-05-24T12:03:27.413Z,840
2023-05-24T12:04:27.350Z,840
2023-05-24T12:05:27.349Z,840
2023-05-24T12:06:27.308Z,840
2023-05-24T12:07:27.307Z,698
2023-05-24T12:08:27.309Z,698
2023-05-24T12:09:27.312Z,698
2023-05-24T12:10:27.309Z,698
2023-05-24T12:11:27.314Z,698
2023-05-24T12:12:33.885Z,586
2023-05-24T12:13:27.316Z,586
2023-05-24T12:14:27.315Z,586
2023-05-24T12:15:27.317Z,586
2023-05-24T12:16:27.345Z,586
2023-05-24T12:17:27.336Z,597
2023-05-24T12:18:27.358Z,597
2023-05-24T12:20:27.323Z,597
2023-05-24T12:21:27.357Z,597
2023-05-24T12:22:27.335Z,574
2023-05-24T12:23:27.339Z,574
2023-05-24T12:24:27.333Z,574
2023-05-24T12:25:27.331Z,574
2023-05-24T12:26:27.334Z,574
2023-05-24T12:27:27.338Z,537
2023-05-24T12:28:27.337Z,537
2023-05-24T12:29:27.336Z,537
2023-05-24T12:30:27.335Z,537
2023-05-24T12:31:27.356Z,537
2023-05-24T12:32:27.350Z,539
2023-05-24T12:33:27.346Z,553
2023-05-24T12:34:27.342Z,553
2023-05-24T12:35:27.342Z,553
2023-05-24T12:36:27.345Z,553
2023-05-24T12:37:27.371Z,553
2023-05-24T12:38:27.352Z,528
2023-05-24T12:39:27.350Z,528
2023-05-24T12:40:27.347Z,528
2023-05-24T12:41:27.354Z,528
2023-05-24T12:42:27.362Z,528
2023-05-24T12:43:27.357Z,415
2023-05-24T12:44:27.355Z,415
2023-05-24T12:45:27.360Z,415
2023-05-24T12:46:27.396Z,415
2023-05-24T12:47:27.437Z,415
2023-05-24T12:48:27.366Z,357
2023-05-24T12:49:27.369Z,357
2023-05-24T12:50:27.426Z,357
2023-05-24T12:51:27.367Z,357
2023-05-24T12:52:27.365Z,357
2023-05-24T12:53:27.391Z,341
2023-05-24T12:54:27.424Z,341
2023-05-24T12:55:27.365Z,341
2023-05-24T12:56:27.391Z,341
2023-05-24T12:57:27.373Z,341
2023-05-24T12:58:27.377Z,313
2023-05-24T12:59:27.420Z,313
2023-05-24T13:00:27.370Z,313
2023-05-24T13:01:27.420Z,313
2023-05-24T13:02:27.391Z,313
2023-05-24T13:03:27.384Z,294
2023-05-24T13:04:27.667Z,294
2023-05-24T13:05:27.392Z,294
2023-05-24T13:06:27.383Z,294
2023-05-24T13:07:27.380Z,294
2023-05-24T13:08:27.376Z,263
2023-05-24T13:09:27.415Z,263
2023-05-24T13:10:27.380Z,263
2023-05-24T13:11:27.385Z,263
2023-05-24T13:12:27.387Z,263
2023-05-24T13:13:27.390Z,278
2023-05-24T13:14:27.389Z,278
2023-05-24T13:15:27.432Z,278
2023-05-24T13:16:27.424Z,278
2023-05-24T13:17:27.424Z,278
2023-05-24T13:18:27.393Z,292
2023-05-24T13:19:27.399Z,292
2023-05-24T13:20:27.450Z,292
2023-05-24T13:21:27.405Z,292
2023-05-24T13:22:27.407Z,292
2023-05-24T13:23:27.400Z,304
2023-05-24T13:24:27.403Z,304
2023-05-24T13:25:27.526Z,304
2023-05-24T13:26:27.403Z,304
2023-05-24T13:27:27.406Z,304
2023-05-24T13:28:27.411Z,331
2023-05-24T13:29:37.042Z,331
2023-05-24T13:30:27.472Z,331
2023-05-24T13:31:27.466Z,331
2023-05-24T13:32:27.408Z,331
2023-05-24T13:33:27.412Z,340
2023-05-24T13:34:27.414Z,340
2023-05-24T13:35:27.435Z,340
2023-05-24T13:36:27.411Z,340
2023-05-24T13:37:27.419Z,340
2023-05-24T13:38:27.413Z,334
2023-05-24T13:39:27.426Z,334
2023-05-24T13:40:27.419Z,334
2023-05-24T13:41:27.599Z,334
2023-05-24T13:42:27.567Z,334
2023-05-24T13:43:27.435Z,316
2023-05-24T13:44:27.425Z,316
2023-05-24T13:45:27.442Z,316
2023-05-24T13:46:27.439Z,316
2023-05-24T13:47:39.126Z,316
2023-05-24T13:48:27.442Z,313
2023-05-24T13:49:27.431Z,313
2023-05-24T13:50:27.437Z,313
2023-05-24T13:51:27.433Z,313
2023-05-24T13:52:27.435Z,313
2023-05-24T13:53:27.438Z,311
2023-05-24T13:54:27.455Z,311